sensor_id;sensor_type;location;lat;lon;timestamp;P1;durP1;ratioP1;P2;durP2;ratioP2
13706;SDS011;6925;47.816;13.072;2022-12-07T00:00:55;11.73;;;5.93;;
13706;SDS011;6925;47.816;13.072;2022-12-07T00:03:30;9.38;;;5.25;;
13706;SDS011;6925;47.816;13.072;2022-12-07T00:05:58;10.90;;;5.82;;
13706;SDS011;6925;47.816;13.072;2022-12-07T00:08:25;10.35;;;5.93;;
13706;SDS011;6925;47.816;13.072;2022-12-07T00:10:53;11.38;;;5.47;;
13706;SDS011;6925;47.816;13.072;2022-12-07T00:13:22;10.25;;;5.80;;
13706;SDS011;6925;47.816;13.072;2022-12-07T00:15:52;9.27;;;6.18;;
13706;SDS011;6925;47.816;13.072;2022-12-07T00:18:19;10.20;;;5.72;;
13706;SDS011;6925;47.816;13.072;2022-12-07T00:20:46;9.90;;;5.22;;
13706;SDS011;6925;47.816;13.072;2022-12-07T00:23:14;10.40;;;6.15;;
13706;SDS011;6925;47.816;13.072;2022-12-07T00:25:41;11.82;;;5.72;;
13706;SDS011;6925;47.816;13.072;2022-12-07T00:28:08;8.90;;;5.50;;
13706;SDS011;6925;47.816;13.072;2022-12-07T00:30:37;9.57;;;5.15;;
13706;SDS011;6925;47.816;13.072;2022-12-07T00:33:04;10.60;;;5.90;;
13706;SDS011;6925;47.816;13.072;2022-12-07T00:35:32;9.93;;;5.65;;
13706;SDS011;6925;47.816;13.072;2022-12-07T00:37:59;9.90;;;5.72;;
13706;SDS011;6925;47.816;13.072;2022-12-07T00:40:26;10.13;;;5.40;;
13706;SDS011;6925;47.816;13.072;2022-12-07T00:42:53;9.35;;;5.25;;
13706;SDS011;6925;47.816;13.072;2022-12-07T00:45:21;10.10;;;5.60;;
13706;SDS011;6925;47.816;13.072;2022-12-07T00:47:51;9.05;;;5.70;;
13706;SDS011;6925;47.816;13.072;2022-12-07T00:50:18;11.20;;;6.30;;
13706;SDS011;6925;47.816;13.072;2022-12-07T00:52:46;9.55;;;5.57;;
13706;SDS011;6925;47.816;13.072;2022-12-07T00:55:15;10.75;;;6.05;;
13706;SDS011;6925;47.816;13.072;2022-12-07T00:57:42;9.63;;;5.53;;
13706;SDS011;6925;47.816;13.072;2022-12-07T01:00:10;9.57;;;5.65;;
13706;SDS011;6925;47.816;13.072;2022-12-07T01:02:38;10.32;;;5.32;;
13706;SDS011;6925;47.816;13.072;2022-12-07T01:07:34;9.70;;;4.82;;
13706;SDS011;6925;47.816;13.072;2022-12-07T01:10:02;10.32;;;5.57;;
13706;SDS011;6925;47.816;13.072;2022-12-07T01:12:30;10.80;;;6.15;;
13706;SDS011;6925;47.816;13.072;2022-12-07T01:14:57;9.93;;;5.38;;
13706;SDS011;6925;47.816;13.072;2022-12-07T01:17:25;10.65;;;6.35;;
13706;SDS011;6925;47.816;13.072;2022-12-07T01:19:52;11.07;;;5.95;;
13706;SDS011;6925;47.816;13.072;2022-12-07T01:22:21;9.30;;;5.50;;
13706;SDS011;6925;47.816;13.072;2022-12-07T01:24:48;11.80;;;6.25;;
13706;SDS011;6925;47.816;13.072;2022-12-07T01:27:15;9.60;;;6.03;;
13706;SDS011;6925;47.816;13.072;2022-12-07T01:29:42;11.20;;;6.53;;
13706;SDS011;6925;47.816;13.072;2022-12-07T01:32:10;11.77;;;5.40;;
13706;SDS011;6925;47.816;13.072;2022-12-07T01:34:37;9.70;;;5.93;;
13706;SDS011;6925;47.816;13.072;2022-12-07T01:37:04;10.73;;;5.60;;
13706;SDS011;6925;47.816;13.072;2022-12-07T01:39:33;11.73;;;6.20;;
13706;SDS011;6925;47.816;13.072;2022-12-07T01:42:00;12.02;;;6.95;;
13706;SDS011;6925;47.816;13.072;2022-12-07T01:44:28;10.77;;;6.28;;
13706;SDS011;6925;47.816;13.072;2022-12-07T01:46:57;12.23;;;6.40;;
13706;SDS011;6925;47.816;13.072;2022-12-07T01:49:28;10.60;;;6.13;;
13706;SDS011;6925;47.816;13.072;2022-12-07T01:52:06;12.77;;;6.10;;
13706;SDS011;6925;47.816;13.072;2022-12-07T01:54:41;11.05;;;5.93;;
13706;SDS011;6925;47.816;13.072;2022-12-07T01:57:10;11.10;;;6.38;;
13706;SDS011;6925;47.816;13.072;2022-12-07T01:59:38;12.27;;;6.88;;
13706;SDS011;6925;47.816;13.072;2022-12-07T02:02:07;12.38;;;6.32;;
13706;SDS011;6925;47.816;13.072;2022-12-07T02:07:06;11.88;;;5.63;;
13706;SDS011;6925;47.816;13.072;2022-12-07T02:09:34;10.88;;;5.63;;
13706;SDS011;6925;47.816;13.072;2022-12-07T02:12:05;10.40;;;6.05;;
13706;SDS011;6925;47.816;13.072;2022-12-07T02:14:32;11.77;;;6.28;;
13706;SDS011;6925;47.816;13.072;2022-12-07T02:17:03;12.60;;;7.18;;
13706;SDS011;6925;47.816;13.072;2022-12-07T02:22:52;12.77;;;6.00;;
13706;SDS011;6925;47.816;13.072;2022-12-07T02:25:40;12.93;;;6.05;;
13706;SDS011;6925;47.816;13.072;2022-12-07T02:28:33;11.85;;;5.72;;
13706;SDS011;6925;47.816;13.072;2022-12-07T02:31:05;14.00;;;6.93;;
13706;SDS011;6925;47.816;13.072;2022-12-07T02:33:39;11.68;;;6.75;;
13706;SDS011;6925;47.816;13.072;2022-12-07T02:36:12;12.20;;;6.60;;
13706;SDS011;6925;47.816;13.072;2022-12-07T02:38:47;13.75;;;6.82;;
13706;SDS011;6925;47.816;13.072;2022-12-07T02:41:22;15.30;;;8.25;;
13706;SDS011;6925;47.816;13.072;2022-12-07T02:43:54;13.38;;;6.80;;
13706;SDS011;6925;47.816;13.072;2022-12-07T02:46:26;13.75;;;6.30;;
13706;SDS011;6925;47.816;13.072;2022-12-07T02:48:57;16.10;;;6.68;;
13706;SDS011;6925;47.816;13.072;2022-12-07T02:51:25;18.17;;;7.55;;
13706;SDS011;6925;47.816;13.072;2022-12-07T02:53:55;15.70;;;7.15;;
13706;SDS011;6925;47.816;13.072;2022-12-07T02:56:24;15.55;;;7.38;;
13706;SDS011;6925;47.816;13.072;2022-12-07T02:59:00;18.02;;;6.93;;
13706;SDS011;6925;47.816;13.072;2022-12-07T03:01:39;16.70;;;7.55;;
13706;SDS011;6925;47.816;13.072;2022-12-07T03:04:16;15.30;;;6.93;;
13706;SDS011;6925;47.816;13.072;2022-12-07T03:06:58;15.05;;;6.97;;
13706;SDS011;6925;47.816;13.072;2022-12-07T03:09:32;15.98;;;8.02;;
13706;SDS011;6925;47.816;13.072;2022-12-07T03:12:06;13.20;;;7.78;;
13706;SDS011;6925;47.816;13.072;2022-12-07T03:14:38;16.75;;;7.93;;
13706;SDS011;6925;47.816;13.072;2022-12-07T03:17:12;14.55;;;6.80;;
13706;SDS011;6925;47.816;13.072;2022-12-07T03:19:42;17.50;;;7.25;;
13706;SDS011;6925;47.816;13.072;2022-12-07T03:22:13;15.10;;;7.00;;
13706;SDS011;6925;47.816;13.072;2022-12-07T03:24:42;18.92;;;7.95;;
13706;SDS011;6925;47.816;13.072;2022-12-07T03:27:14;15.75;;;7.63;;
13706;SDS011;6925;47.816;13.072;2022-12-07T03:29:47;18.42;;;8.00;;
13706;SDS011;6925;47.816;13.072;2022-12-07T03:32:22;18.08;;;8.55;;
13706;SDS011;6925;47.816;13.072;2022-12-07T03:34:56;16.13;;;7.03;;
13706;SDS011;6925;47.816;13.072;2022-12-07T03:37:29;16.65;;;7.53;;
13706;SDS011;6925;47.816;13.072;2022-12-07T03:40:02;14.63;;;6.97;;
13706;SDS011;6925;47.816;13.072;2022-12-07T03:42:33;16.10;;;7.78;;
13706;SDS011;6925;47.816;13.072;2022-12-07T03:47:32;15.95;;;6.70;;
13706;SDS011;6925;47.816;13.072;2022-12-07T03:50:04;20.88;;;8.40;;
13706;SDS011;6925;47.816;13.072;2022-12-07T03:52:36;17.33;;;8.20;;
13706;SDS011;6925;47.816;13.072;2022-12-07T03:55:08;15.48;;;7.75;;
13706;SDS011;6925;47.816;13.072;2022-12-07T03:57:41;16.95;;;8.73;;
13706;SDS011;6925;47.816;13.072;2022-12-07T04:00:11;16.77;;;8.07;;
13706;SDS011;6925;47.816;13.072;2022-12-07T04:02:41;16.17;;;7.72;;
13706;SDS011;6925;47.816;13.072;2022-12-07T04:05:09;15.18;;;7.82;;
13706;SDS011;6925;47.816;13.072;2022-12-07T04:07:36;16.38;;;7.72;;
13706;SDS011;6925;47.816;13.072;2022-12-07T04:10:04;16.98;;;7.18;;
13706;SDS011;6925;47.816;13.072;2022-12-07T04:12:32;21.02;;;8.52;;
13706;SDS011;6925;47.816;13.072;2022-12-07T04:14:59;15.05;;;7.38;;
13706;SDS011;6925;47.816;13.072;2022-12-07T04:17:27;14.88;;;7.25;;
13706;SDS011;6925;47.816;13.072;2022-12-07T04:19:56;16.45;;;6.85;;
13706;SDS011;6925;47.816;13.072;2022-12-07T04:22:23;15.65;;;7.15;;
13706;SDS011;6925;47.816;13.072;2022-12-07T04:24:50;16.70;;;7.45;;
13706;SDS011;6925;47.816;13.072;2022-12-07T04:27:17;15.50;;;7.68;;
13706;SDS011;6925;47.816;13.072;2022-12-07T04:29:44;14.18;;;6.95;;
13706;SDS011;6925;47.816;13.072;2022-12-07T04:32:12;16.08;;;7.00;;
13706;SDS011;6925;47.816;13.072;2022-12-07T04:34:41;15.77;;;7.75;;
13706;SDS011;6925;47.816;13.072;2022-12-07T04:37:10;18.40;;;8.75;;
13706;SDS011;6925;47.816;13.072;2022-12-07T04:39:37;16.60;;;7.30;;
13706;SDS011;6925;47.816;13.072;2022-12-07T04:42:04;16.27;;;7.18;;
13706;SDS011;6925;47.816;13.072;2022-12-07T04:44:32;18.08;;;9.02;;
13706;SDS011;6925;47.816;13.072;2022-12-07T04:46:59;17.08;;;7.30;;
13706;SDS011;6925;47.816;13.072;2022-12-07T04:49:26;15.30;;;7.00;;
13706;SDS011;6925;47.816;13.072;2022-12-07T04:51:54;14.40;;;7.22;;
13706;SDS011;6925;47.816;13.072;2022-12-07T04:54:22;16.83;;;7.68;;
13706;SDS011;6925;47.816;13.072;2022-12-07T04:56:51;13.30;;;6.82;;
13706;SDS011;6925;47.816;13.072;2022-12-07T04:59:19;12.50;;;6.93;;
13706;SDS011;6925;47.816;13.072;2022-12-07T05:01:46;13.88;;;6.50;;
13706;SDS011;6925;47.816;13.072;2022-12-07T05:06:41;14.60;;;7.43;;
13706;SDS011;6925;47.816;13.072;2022-12-07T05:09:08;18.98;;;7.70;;
13706;SDS011;6925;47.816;13.072;2022-12-07T05:11:39;18.40;;;7.53;;
13706;SDS011;6925;47.816;13.072;2022-12-07T05:14:08;15.13;;;8.32;;
13706;SDS011;6925;47.816;13.072;2022-12-07T05:16:38;14.07;;;7.35;;
13706;SDS011;6925;47.816;13.072;2022-12-07T05:19:06;15.55;;;6.88;;
13706;SDS011;6925;47.816;13.072;2022-12-07T05:21:34;15.32;;;7.90;;
13706;SDS011;6925;47.816;13.072;2022-12-07T05:24:02;15.80;;;6.72;;
13706;SDS011;6925;47.816;13.072;2022-12-07T05:26:30;15.88;;;7.38;;
13706;SDS011;6925;47.816;13.072;2022-12-07T05:31:26;14.75;;;7.03;;
13706;SDS011;6925;47.816;13.072;2022-12-07T05:33:54;16.90;;;7.85;;
13706;SDS011;6925;47.816;13.072;2022-12-07T05:36:21;12.82;;;6.43;;
13706;SDS011;6925;47.816;13.072;2022-12-07T05:38:49;14.32;;;7.45;;
13706;SDS011;6925;47.816;13.072;2022-12-07T05:41:17;15.23;;;6.93;;
13706;SDS011;6925;47.816;13.072;2022-12-07T05:44:04;13.00;;;6.53;;
13706;SDS011;6925;47.816;13.072;2022-12-07T05:46:32;13.43;;;7.00;;
13706;SDS011;6925;47.816;13.072;2022-12-07T05:48:59;12.73;;;7.30;;
13706;SDS011;6925;47.816;13.072;2022-12-07T05:53:54;12.00;;;6.28;;
13706;SDS011;6925;47.816;13.072;2022-12-07T05:56:21;12.88;;;6.45;;
13706;SDS011;6925;47.816;13.072;2022-12-07T05:58:49;19.45;;;6.43;;
13706;SDS011;6925;47.816;13.072;2022-12-07T06:01:36;13.68;;;6.78;;
13706;SDS011;6925;47.816;13.072;2022-12-07T06:04:03;12.68;;;6.05;;
13706;SDS011;6925;47.816;13.072;2022-12-07T06:08:58;14.70;;;6.82;;
13706;SDS011;6925;47.816;13.072;2022-12-07T06:11:26;14.43;;;7.00;;
13706;SDS011;6925;47.816;13.072;2022-12-07T06:14:10;13.48;;;6.70;;
13706;SDS011;6925;47.816;13.072;2022-12-07T06:16:39;12.55;;;7.15;;
13706;SDS011;6925;47.816;13.072;2022-12-07T06:19:06;14.18;;;7.25;;
13706;SDS011;6925;47.816;13.072;2022-12-07T06:21:37;15.50;;;7.53;;
13706;SDS011;6925;47.816;13.072;2022-12-07T06:24:07;13.32;;;7.05;;
13706;SDS011;6925;47.816;13.072;2022-12-07T06:26:38;11.07;;;6.43;;
13706;SDS011;6925;47.816;13.072;2022-12-07T06:29:06;14.55;;;7.57;;
13706;SDS011;6925;47.816;13.072;2022-12-07T06:31:34;12.70;;;6.85;;
13706;SDS011;6925;47.816;13.072;2022-12-07T06:34:04;13.18;;;6.95;;
13706;SDS011;6925;47.816;13.072;2022-12-07T06:36:32;12.85;;;6.68;;
13706;SDS011;6925;47.816;13.072;2022-12-07T06:39:02;14.40;;;7.50;;
13706;SDS011;6925;47.816;13.072;2022-12-07T06:41:30;11.35;;;6.07;;
13706;SDS011;6925;47.816;13.072;2022-12-07T06:44:00;13.55;;;6.53;;
13706;SDS011;6925;47.816;13.072;2022-12-07T06:46:28;12.18;;;6.65;;
13706;SDS011;6925;47.816;13.072;2022-12-07T06:48:56;13.00;;;7.25;;
13706;SDS011;6925;47.816;13.072;2022-12-07T06:51:25;12.70;;;7.18;;
13706;SDS011;6925;47.816;13.072;2022-12-07T06:53:52;12.10;;;6.25;;
13706;SDS011;6925;47.816;13.072;2022-12-07T06:56:19;10.90;;;6.30;;
13706;SDS011;6925;47.816;13.072;2022-12-07T06:58:47;15.48;;;6.18;;
13706;SDS011;6925;47.816;13.072;2022-12-07T07:01:16;11.50;;;6.82;;
13706;SDS011;6925;47.816;13.072;2022-12-07T07:03:44;11.82;;;6.85;;
13706;SDS011;6925;47.816;13.072;2022-12-07T07:06:13;11.10;;;5.90;;
13706;SDS011;6925;47.816;13.072;2022-12-07T07:08:42;14.02;;;7.70;;
13706;SDS011;6925;47.816;13.072;2022-12-07T07:11:09;12.20;;;6.75;;
13706;SDS011;6925;47.816;13.072;2022-12-07T07:13:37;11.73;;;6.50;;
13706;SDS011;6925;47.816;13.072;2022-12-07T07:16:05;13.15;;;6.90;;
13706;SDS011;6925;47.816;13.072;2022-12-07T07:18:35;12.85;;;6.68;;
13706;SDS011;6925;47.816;13.072;2022-12-07T07:21:03;13.63;;;6.93;;
13706;SDS011;6925;47.816;13.072;2022-12-07T07:23:31;11.65;;;6.15;;
13706;SDS011;6925;47.816;13.072;2022-12-07T07:26:02;13.07;;;7.03;;
13706;SDS011;6925;47.816;13.072;2022-12-07T07:28:32;13.27;;;6.47;;
13706;SDS011;6925;47.816;13.072;2022-12-07T07:31:02;14.13;;;6.88;;
13706;SDS011;6925;47.816;13.072;2022-12-07T07:33:32;12.07;;;6.30;;
13706;SDS011;6925;47.816;13.072;2022-12-07T07:35:59;14.80;;;6.50;;
13706;SDS011;6925;47.816;13.072;2022-12-07T07:38:27;11.27;;;6.47;;
13706;SDS011;6925;47.816;13.072;2022-12-07T07:43:23;11.68;;;5.85;;
13706;SDS011;6925;47.816;13.072;2022-12-07T07:45:54;13.18;;;6.80;;
13706;SDS011;6925;47.816;13.072;2022-12-07T07:48:25;11.55;;;6.50;;
13706;SDS011;6925;47.816;13.072;2022-12-07T07:50:54;14.95;;;6.85;;
13706;SDS011;6925;47.816;13.072;2022-12-07T07:53:22;15.48;;;8.25;;
13706;SDS011;6925;47.816;13.072;2022-12-07T07:55:53;14.68;;;7.43;;
13706;SDS011;6925;47.816;13.072;2022-12-07T07:58:23;12.90;;;7.30;;
13706;SDS011;6925;47.816;13.072;2022-12-07T08:00:52;13.40;;;7.63;;
13706;SDS011;6925;47.816;13.072;2022-12-07T08:03:19;12.48;;;6.57;;
13706;SDS011;6925;47.816;13.072;2022-12-07T08:05:48;13.25;;;7.65;;
13706;SDS011;6925;47.816;13.072;2022-12-07T08:08:17;13.00;;;7.03;;
13706;SDS011;6925;47.816;13.072;2022-12-07T08:10:44;13.60;;;7.95;;
13706;SDS011;6925;47.816;13.072;2022-12-07T08:13:13;15.40;;;7.50;;
13706;SDS011;6925;47.816;13.072;2022-12-07T08:15:46;12.82;;;6.82;;
13706;SDS011;6925;47.816;13.072;2022-12-07T08:18:14;12.75;;;7.10;;
13706;SDS011;6925;47.816;13.072;2022-12-07T08:20:44;14.75;;;8.05;;
13706;SDS011;6925;47.816;13.072;2022-12-07T08:23:11;13.30;;;7.68;;
13706;SDS011;6925;47.816;13.072;2022-12-07T08:25:39;13.93;;;7.53;;
13706;SDS011;6925;47.816;13.072;2022-12-07T08:28:06;15.18;;;7.72;;
13706;SDS011;6925;47.816;13.072;2022-12-07T08:30:34;13.05;;;6.68;;
13706;SDS011;6925;47.816;13.072;2022-12-07T08:33:03;15.40;;;7.38;;
13706;SDS011;6925;47.816;13.072;2022-12-07T08:35:34;13.40;;;7.07;;
13706;SDS011;6925;47.816;13.072;2022-12-07T08:38:03;14.18;;;7.72;;
13706;SDS011;6925;47.816;13.072;2022-12-07T08:40:30;14.73;;;7.57;;
13706;SDS011;6925;47.816;13.072;2022-12-07T08:42:58;14.95;;;7.05;;
13706;SDS011;6925;47.816;13.072;2022-12-07T08:45:26;11.75;;;6.43;;
13706;SDS011;6925;47.816;13.072;2022-12-07T08:48:00;13.20;;;7.22;;
13706;SDS011;6925;47.816;13.072;2022-12-07T08:50:34;12.70;;;6.25;;
13706;SDS011;6925;47.816;13.072;2022-12-07T08:53:05;13.15;;;7.35;;
13706;SDS011;6925;47.816;13.072;2022-12-07T08:55:33;13.20;;;7.10;;
13706;SDS011;6925;47.816;13.072;2022-12-07T08:58:02;15.30;;;7.30;;
13706;SDS011;6925;47.816;13.072;2022-12-07T09:00:31;14.60;;;7.85;;
13706;SDS011;6925;47.816;13.072;2022-12-07T09:02:59;16.30;;;7.63;;
13706;SDS011;6925;47.816;13.072;2022-12-07T09:05:27;14.80;;;7.72;;
13706;SDS011;6925;47.816;13.072;2022-12-07T09:07:56;13.55;;;7.53;;
13706;SDS011;6925;47.816;13.072;2022-12-07T09:10:26;14.43;;;7.18;;
13706;SDS011;6925;47.816;13.072;2022-12-07T09:12:56;15.85;;;8.23;;
13706;SDS011;6925;47.816;13.072;2022-12-07T09:15:25;17.77;;;9.35;;
13706;SDS011;6925;47.816;13.072;2022-12-07T09:17:54;16.10;;;8.70;;
13706;SDS011;6925;47.816;13.072;2022-12-07T09:20:22;14.65;;;7.13;;
13706;SDS011;6925;47.816;13.072;2022-12-07T09:22:50;14.30;;;7.70;;
13706;SDS011;6925;47.816;13.072;2022-12-07T09:25:19;15.77;;;8.60;;
13706;SDS011;6925;47.816;13.072;2022-12-07T09:27:47;14.60;;;7.28;;
13706;SDS011;6925;47.816;13.072;2022-12-07T09:30:14;16.33;;;8.15;;
13706;SDS011;6925;47.816;13.072;2022-12-07T09:32:44;12.50;;;6.97;;
13706;SDS011;6925;47.816;13.072;2022-12-07T09:37:40;13.52;;;7.00;;
13706;SDS011;6925;47.816;13.072;2022-12-07T09:40:07;14.23;;;7.63;;
13706;SDS011;6925;47.816;13.072;2022-12-07T09:42:37;17.00;;;7.78;;
13706;SDS011;6925;47.816;13.072;2022-12-07T09:45:12;14.85;;;7.22;;
13706;SDS011;6925;47.816;13.072;2022-12-07T09:47:41;12.35;;;6.07;;
13706;SDS011;6925;47.816;13.072;2022-12-07T09:50:12;12.32;;;6.63;;
13706;SDS011;6925;47.816;13.072;2022-12-07T09:52:41;9.82;;;5.57;;
13706;SDS011;6925;47.816;13.072;2022-12-07T09:55:13;12.68;;;6.35;;
13706;SDS011;6925;47.816;13.072;2022-12-07T09:57:44;14.75;;;7.10;;
13706;SDS011;6925;47.816;13.072;2022-12-07T10:00:12;11.45;;;6.20;;
13706;SDS011;6925;47.816;13.072;2022-12-07T10:02:43;11.07;;;6.22;;
13706;SDS011;6925;47.816;13.072;2022-12-07T10:05:12;12.75;;;6.20;;
13706;SDS011;6925;47.816;13.072;2022-12-07T10:07:43;8.70;;;4.82;;
13706;SDS011;6925;47.816;13.072;2022-12-07T10:10:13;8.65;;;3.75;;
13706;SDS011;6925;47.816;13.072;2022-12-07T10:12:56;6.88;;;3.88;;
13706;SDS011;6925;47.816;13.072;2022-12-07T10:18:16;7.45;;;3.53;;
13706;SDS011;6925;47.816;13.072;2022-12-07T10:20:47;6.32;;;3.53;;
13706;SDS011;6925;47.816;13.072;2022-12-07T10:23:15;7.10;;;3.70;;
13706;SDS011;6925;47.816;13.072;2022-12-07T10:25:44;7.47;;;4.38;;
13706;SDS011;6925;47.816;13.072;2022-12-07T10:28:15;8.85;;;4.20;;
13706;SDS011;6925;47.816;13.072;2022-12-07T10:30:48;7.70;;;4.05;;
13706;SDS011;6925;47.816;13.072;2022-12-07T10:33:27;7.65;;;4.22;;
13706;SDS011;6925;47.816;13.072;2022-12-07T10:35:56;8.15;;;4.28;;
13706;SDS011;6925;47.816;13.072;2022-12-07T10:38:24;7.82;;;3.92;;
13706;SDS011;6925;47.816;13.072;2022-12-07T10:41:03;7.40;;;4.20;;
13706;SDS011;6925;47.816;13.072;2022-12-07T10:43:34;9.45;;;4.45;;
13706;SDS011;6925;47.816;13.072;2022-12-07T10:49:00;10.18;;;5.40;;
13706;SDS011;6925;47.816;13.072;2022-12-07T10:51:37;10.30;;;6.18;;
13706;SDS011;6925;47.816;13.072;2022-12-07T10:56:48;7.50;;;3.90;;
13706;SDS011;6925;47.816;13.072;2022-12-07T11:02:19;6.53;;;3.35;;
13706;SDS011;6925;47.816;13.072;2022-12-07T11:05:05;6.50;;;3.58;;
13706;SDS011;6925;47.816;13.072;2022-12-07T11:07:43;7.45;;;3.85;;
13706;SDS011;6925;47.816;13.072;2022-12-07T11:10:18;11.38;;;4.22;;
13706;SDS011;6925;47.816;13.072;2022-12-07T11:12:56;7.45;;;4.60;;
13706;SDS011;6925;47.816;13.072;2022-12-07T11:15:50;8.70;;;4.85;;
13706;SDS011;6925;47.816;13.072;2022-12-07T11:18:26;5.82;;;2.92;;
13706;SDS011;6925;47.816;13.072;2022-12-07T11:20:59;6.95;;;3.70;;
13706;SDS011;6925;47.816;13.072;2022-12-07T11:23:45;6.95;;;3.58;;
13706;SDS011;6925;47.816;13.072;2022-12-07T11:26:18;7.15;;;3.20;;
13706;SDS011;6925;47.816;13.072;2022-12-07T11:28:58;5.50;;;2.83;;
13706;SDS011;6925;47.816;13.072;2022-12-07T11:31:46;6.28;;;2.65;;
13706;SDS011;6925;47.816;13.072;2022-12-07T11:34:23;6.05;;;2.92;;
13706;SDS011;6925;47.816;13.072;2022-12-07T11:37:00;4.75;;;2.63;;
13706;SDS011;6925;47.816;13.072;2022-12-07T11:39:33;7.13;;;2.85;;
13706;SDS011;6925;47.816;13.072;2022-12-07T11:42:04;7.05;;;3.08;;
13706;SDS011;6925;47.816;13.072;2022-12-07T11:44:39;6.05;;;3.30;;
13706;SDS011;6925;47.816;13.072;2022-12-07T11:47:16;5.80;;;3.10;;
13706;SDS011;6925;47.816;13.072;2022-12-07T11:49:51;5.20;;;3.13;;
13706;SDS011;6925;47.816;13.072;2022-12-07T11:52:25;7.93;;;3.67;;
13706;SDS011;6925;47.816;13.072;2022-12-07T11:54:59;6.05;;;2.88;;
13706;SDS011;6925;47.816;13.072;2022-12-07T11:57:30;6.13;;;3.47;;
13706;SDS011;6925;47.816;13.072;2022-12-07T12:00:05;6.43;;;3.35;;
13706;SDS011;6925;47.816;13.072;2022-12-07T12:02:43;7.25;;;3.95;;
13706;SDS011;6925;47.816;13.072;2022-12-07T12:05:17;7.50;;;3.67;;
13706;SDS011;6925;47.816;13.072;2022-12-07T12:07:48;8.27;;;3.95;;
13706;SDS011;6925;47.816;13.072;2022-12-07T12:10:25;10.13;;;4.68;;
13706;SDS011;6925;47.816;13.072;2022-12-07T12:13:05;8.98;;;4.47;;
13706;SDS011;6925;47.816;13.072;2022-12-07T12:15:44;10.50;;;5.40;;
13706;SDS011;6925;47.816;13.072;2022-12-07T12:18:29;10.95;;;5.80;;
13706;SDS011;6925;47.816;13.072;2022-12-07T12:21:28;11.23;;;5.13;;
13706;SDS011;6925;47.816;13.072;2022-12-07T12:23:58;11.77;;;6.28;;
13706;SDS011;6925;47.816;13.072;2022-12-07T12:26:28;12.13;;;5.55;;
13706;SDS011;6925;47.816;13.072;2022-12-07T12:28:59;12.77;;;5.65;;
13706;SDS011;6925;47.816;13.072;2022-12-07T12:31:31;10.13;;;5.97;;
13706;SDS011;6925;47.816;13.072;2022-12-07T12:36:58;11.52;;;5.88;;
13706;SDS011;6925;47.816;13.072;2022-12-07T12:39:27;10.20;;;5.18;;
13706;SDS011;6925;47.816;13.072;2022-12-07T12:41:58;11.45;;;6.00;;
13706;SDS011;6925;47.816;13.072;2022-12-07T12:47:38;11.20;;;5.53;;
13706;SDS011;6925;47.816;13.072;2022-12-07T12:50:18;10.50;;;5.05;;
13706;SDS011;6925;47.816;13.072;2022-12-07T12:59:21;12.48;;;5.97;;
13706;SDS011;6925;47.816;13.072;2022-12-07T13:01:54;11.55;;;6.28;;
13706;SDS011;6925;47.816;13.072;2022-12-07T13:04:40;11.82;;;6.57;;
13706;SDS011;6925;47.816;13.072;2022-12-07T13:10:24;13.93;;;6.80;;
13706;SDS011;6925;47.816;13.072;2022-12-07T13:25:31;12.15;;;5.97;;
13706;SDS011;6925;47.816;13.072;2022-12-07T13:28:09;12.10;;;6.28;;
13706;SDS011;6925;47.816;13.072;2022-12-07T13:33:46;11.65;;;6.70;;
13706;SDS011;6925;47.816;13.072;2022-12-07T13:36:17;12.88;;;6.47;;
13706;SDS011;6925;47.816;13.072;2022-12-07T13:38:51;13.95;;;6.80;;
13706;SDS011;6925;47.816;13.072;2022-12-07T13:41:25;11.90;;;6.00;;
13706;SDS011;6925;47.816;13.072;2022-12-07T13:43:54;10.85;;;5.97;;
13706;SDS011;6925;47.816;13.072;2022-12-07T13:46:32;13.68;;;6.97;;
13706;SDS011;6925;47.816;13.072;2022-12-07T13:49:16;16.83;;;7.30;;
13706;SDS011;6925;47.816;13.072;2022-12-07T13:51:46;13.23;;;7.78;;
13706;SDS011;6925;47.816;13.072;2022-12-07T13:56:43;13.05;;;7.60;;
13706;SDS011;6925;47.816;13.072;2022-12-07T13:59:14;14.27;;;7.38;;
13706;SDS011;6925;47.816;13.072;2022-12-07T14:01:45;13.05;;;7.18;;
13706;SDS011;6925;47.816;13.072;2022-12-07T14:04:18;16.42;;;7.18;;
13706;SDS011;6925;47.816;13.072;2022-12-07T14:07:00;10.73;;;6.97;;
13706;SDS011;6925;47.816;13.072;2022-12-07T14:09:52;12.13;;;7.00;;
13706;SDS011;6925;47.816;13.072;2022-12-07T14:12:23;11.07;;;6.40;;
13706;SDS011;6925;47.816;13.072;2022-12-07T14:14:51;11.07;;;6.13;;
13706;SDS011;6925;47.816;13.072;2022-12-07T14:17:21;12.57;;;5.32;;
13706;SDS011;6925;47.816;13.072;2022-12-07T14:19:51;11.82;;;6.80;;
13706;SDS011;6925;47.816;13.072;2022-12-07T14:22:22;10.13;;;5.97;;
13706;SDS011;6925;47.816;13.072;2022-12-07T14:25:09;12.73;;;6.82;;
13706;SDS011;6925;47.816;13.072;2022-12-07T14:30:33;14.80;;;7.40;;
13706;SDS011;6925;47.816;13.072;2022-12-07T14:33:02;13.43;;;6.47;;
13706;SDS011;6925;47.816;13.072;2022-12-07T14:35:33;15.00;;;6.88;;
13706;SDS011;6925;47.816;13.072;2022-12-07T14:38:05;12.02;;;6.47;;
13706;SDS011;6925;47.816;13.072;2022-12-07T14:40:34;13.63;;;6.45;;
13706;SDS011;6925;47.816;13.072;2022-12-07T14:43:04;13.13;;;7.05;;
13706;SDS011;6925;47.816;13.072;2022-12-07T14:45:36;11.00;;;6.28;;
13706;SDS011;6925;47.816;13.072;2022-12-07T14:48:05;10.70;;;5.72;;
13706;SDS011;6925;47.816;13.072;2022-12-07T14:50:35;9.73;;;5.82;;
13706;SDS011;6925;47.816;13.072;2022-12-07T14:53:06;10.95;;;5.85;;
13706;SDS011;6925;47.816;13.072;2022-12-07T14:55:37;12.48;;;6.13;;
13706;SDS011;6925;47.816;13.072;2022-12-07T14:58:11;10.15;;;5.35;;
13706;SDS011;6925;47.816;13.072;2022-12-07T15:00:40;10.13;;;5.40;;
13706;SDS011;6925;47.816;13.072;2022-12-07T15:03:08;9.38;;;5.10;;
13706;SDS011;6925;47.816;13.072;2022-12-07T15:05:37;10.55;;;4.38;;
13706;SDS011;6925;47.816;13.072;2022-12-07T15:08:05;8.18;;;4.43;;
13706;SDS011;6925;47.816;13.072;2022-12-07T15:10:33;13.10;;;4.68;;
13706;SDS011;6925;47.816;13.072;2022-12-07T15:13:03;8.05;;;4.68;;
13706;SDS011;6925;47.816;13.072;2022-12-07T15:15:46;8.32;;;4.35;;
13706;SDS011;6925;47.816;13.072;2022-12-07T15:18:14;7.85;;;4.20;;
13706;SDS011;6925;47.816;13.072;2022-12-07T15:20:42;7.38;;;4.05;;
13706;SDS011;6925;47.816;13.072;2022-12-07T15:23:09;7.60;;;4.22;;
13706;SDS011;6925;47.816;13.072;2022-12-07T15:25:39;9.27;;;4.20;;
13706;SDS011;6925;47.816;13.072;2022-12-07T15:28:07;7.45;;;3.80;;
13706;SDS011;6925;47.816;13.072;2022-12-07T15:30:36;8.90;;;4.57;;
13706;SDS011;6925;47.816;13.072;2022-12-07T15:33:06;8.43;;;4.43;;
13706;SDS011;6925;47.816;13.072;2022-12-07T15:35:33;7.40;;;3.95;;
13706;SDS011;6925;47.816;13.072;2022-12-07T15:38:04;8.40;;;4.05;;
13706;SDS011;6925;47.816;13.072;2022-12-07T15:43:00;9.75;;;4.38;;
13706;SDS011;6925;47.816;13.072;2022-12-07T15:45:29;8.45;;;4.00;;
13706;SDS011;6925;47.816;13.072;2022-12-07T15:47:56;8.63;;;4.55;;
13706;SDS011;6925;47.816;13.072;2022-12-07T15:50:24;7.45;;;4.32;;
13706;SDS011;6925;47.816;13.072;2022-12-07T15:52:52;9.10;;;5.32;;
13706;SDS011;6925;47.816;13.072;2022-12-07T15:55:19;10.10;;;4.78;;
13706;SDS011;6925;47.816;13.072;2022-12-07T15:57:46;8.13;;;4.72;;
13706;SDS011;6925;47.816;13.072;2022-12-07T16:02:42;8.93;;;5.05;;
13706;SDS011;6925;47.816;13.072;2022-12-07T16:08:33;8.27;;;5.10;;
13706;SDS011;6925;47.816;13.072;2022-12-07T16:11:04;9.70;;;5.63;;
13706;SDS011;6925;47.816;13.072;2022-12-07T16:13:32;9.45;;;5.15;;
13706;SDS011;6925;47.816;13.072;2022-12-07T16:19:21;11.02;;;6.65;;
13706;SDS011;6925;47.816;13.072;2022-12-07T16:21:49;14.45;;;7.85;;
13706;SDS011;6925;47.816;13.072;2022-12-07T16:24:18;19.38;;;9.13;;